Time;durP1;ratioP1;P1;durP2;ratioP2;P2;SDS_P1;SDS_P2;PMS_P1;PMS_P2;Temp;Humidity;BMP_temperature;BMP_pressure;BME280_temperature;BME280_humidity;BME280_pressure;Samples;Min_cycle;Max_cycle;Signal;HPM_P1;HPM_P2
2023/11/09 00:02:25;;;;;;;;;;;;;;;;;;4953967;28;19930;-82
2023/11/09 00:04:54;;;;;;;;;;;;;;;;;;4943058;28;19941;-82
2023/11/09 00:07:24;;;;;;;;;;;;;;;;;;4964505;28;19942;-82
2023/11/09 00:09:52;;;;;;;;;;;;;;;;;;4958784;28;20356;-82
2023/11/09 00:12:20;;;;;;;;;;;;;;;;;;4959792;28;19926;-83
2023/11/09 00:14:48;;;;;;;;;;;;;;;;;;4956981;28;20017;-80
2023/11/09 00:17:15;;;;;;;;;;;;;;;;;;4942228;28;19966;-81
2023/11/09 00:19:42;;;;;;;;;;;;;;;;;;4961547;28;19980;-82
2023/11/09 00:22:12;;;;;;;;;;;;;;;;;;4964419;28;19933;-83
2023/11/09 00:24:38;;;;;;;;;;;;;;;;;;4962329;28;19931;-80
2023/11/09 00:27:06;;;;;;;;;;;;;;;;;;4958679;28;19933;-82
2023/11/09 00:29:35;;;;;;;;;;;;;;;;;;4972753;28;19926;-81
2023/11/09 00:32:02;;;;;;;;;;;;;;;;;;4964609;28;19930;-82
2023/11/09 00:34:31;;;;;;;;;;;;;;;;;;4955825;28;20033;-81
2023/11/09 00:37:02;;;;;;;;;;;;;;;;;;4962458;28;19933;-80
2023/11/09 00:39:30;;;;;;;;;;;;;;;;;;4961771;28;19989;-84
2023/11/09 00:42:00;;;;;;;;;;;;;;;;;;4954432;28;19933;-82
2023/11/09 00:44:29;;;;;;;;;;;;;;;;;;4962088;28;19934;-81
2023/11/09 00:46:59;;;;;;;;;;;;;;;;;;4960776;28;19978;-81
2023/11/09 00:49:26;;;;;;;;;;;;;;;;;;4954389;28;20311;-79
2023/11/09 00:51:54;;;;;;;;;;;;;;;;;;4963990;28;19933;-79
2023/11/09 00:54:22;;;;;;;;;;;;;;;;;;4958646;28;20347;-81
2023/11/09 00:56:49;;;;;;;;;;;;;;;;;;4959492;28;19949;-82
2023/11/09 00:59:16;;;;;;;;;;;;;;;;;;4937085;28;19927;-80
2023/11/09 01:01:42;;;;;;;;;;;;;;;;;;4940306;28;19977;-82
2023/11/09 01:04:09;;;;;;;;;;;;;;;;;;4946211;28;19926;-81
2023/11/09 01:06:36;;;;;;;;;;;;;;;;;;4961893;28;20368;-82
2023/11/09 01:09:03;;;;;;;;;;;;;;;;;;4941885;28;19931;-80
2023/11/09 01:11:33;;;;;;;;;;;;;;;;;;4960887;28;19962;-81
2023/11/09 01:14:10;;;;;;;;;;;;;;;;;;4963967;28;19931;-82
2023/11/09 01:16:40;;;;;;;;;;;;;;;;;;4954876;28;19945;-82
2023/11/09 01:19:09;;;;;;;;;;;;;;;;;;4942659;28;20000;-80
2023/11/09 01:21:38;;;;;;;;;;;;;;;;;;4959966;28;19930;-81
2023/11/09 01:24:08;;;;;;;;;;;;;;;;;;4955543;28;19936;-81
2023/11/09 01:26:40;;;;;;;;;;;;;;;;;;4964493;28;20279;-81
2023/11/09 01:29:07;;;;;;;;;;;;;;;;;;4963166;28;19966;-82
2023/11/09 01:31:34;;;;;;;;;;;;;;;;;;4961839;28;19930;-83
2023/11/09 01:34:03;;;;;;;;;;;;;;;;;;4962777;28;19926;-82
2023/11/09 01:36:37;;;;;;;;;;;;;;;;;;4957031;28;19934;-82
2023/11/09 01:39:04;;;;;;;;;;;;;;;;;;4954093;28;20292;-81
2023/11/09 01:41:36;;;;;;;;;;;;;;;;;;4966395;28;20354;-84
2023/11/09 01:44:04;;;;;;;;;;;;;;;;;;4957296;28;19926;-82
2023/11/09 01:46:33;;;;;;;;;;;;;;;;;;4961219;28;19934;-80
2023/11/09 01:49:02;;;;;;;;;;;;;;;;;;4979145;28;19981;-79
2023/11/09 01:51:29;;;;;;;;;;;;;;;;;;4962586;28;20268;-80
2023/11/09 01:53:57;;;;;;;;;;;;;;;;;;4966143;28;19926;-82
2023/11/09 01:56:31;;;;;;;;;;;;;;;;;;4963944;28;19941;-81
2023/11/09 01:59:00;;;;;;;;;;;;;;;;;;4959869;28;19930;-81
2023/11/09 02:01:29;;;;;;;;;;;;;;;;;;4961221;28;19970;-81
2023/11/09 02:03:59;;;;;;;;;;;;;;;;;;4961334;28;19952;-81
2023/11/09 02:06:29;;;;;;;;;;;;;;;;;;4966369;28;20028;-80
2023/11/09 02:08:56;;;;;;;;;;;;;;;;;;4963883;28;19926;-81
2023/11/09 02:11:25;;;;;;;;;;;;;;;;;;4947884;28;19930;-80
2023/11/09 02:13:52;;;;;;;;;;;;;;;;;;4956529;28;19962;-79
2023/11/09 02:16:18;;;;;;;;;;;;;;;;;;4963130;28;19931;-80
2023/11/09 02:18:45;;;;;;;;;;;;;;;;;;4963195;28;19977;-81
2023/11/09 02:21:14;;;;;;;;;;;;;;;;;;4953793;28;20391;-81
2023/11/09 02:23:41;;;;;;;;;;;;;;;;;;4955343;28;19933;-82
2023/11/09 02:26:08;;;;;;;;;;;;;;;;;;4954445;28;19998;-82
2023/11/09 02:28:38;;;;;;;;;;;;;;;;;;4935474;28;19979;-79
2023/11/09 02:31:04;;;;;;;;;;;;;;;;;;4942775;28;19926;-82
2023/11/09 02:33:33;;;;;;;;;;;;;;;;;;4946429;28;19933;-79
2023/11/09 02:36:00;;;;;;;;;;;;;;;;;;4967056;28;19927;-82
2023/11/09 02:38:27;;;;;;;;;;;;;;;;;;4963260;28;19926;-81
2023/11/09 02:40:56;;;;;;;;;;;;;;;;;;4963766;28;19926;-79
2023/11/09 02:43:24;;;;;;;;;;;;;;;;;;4967440;28;19927;-80
2023/11/09 02:45:57;;;;;;;;;;;;;;;;;;4960180;28;21320;-80
2023/11/09 02:48:24;;;;;;;;;;;;;;;;;;4943211;29;20450;-82
2023/11/09 02:50:51;;;;;;;;;;;;;;;;;;4959276;28;20323;-81
2023/11/09 02:53:19;;;;;;;;;;;;;;;;;;4963438;28;19926;-79
2023/11/09 02:55:46;;;;;;;;;;;;;;;;;;4953309;28;19958;-79
2023/11/09 02:58:15;;;;;;;;;;;;;;;;;;4944526;28;19930;-81
2023/11/09 03:00:45;;;;;;;;;;;;;;;;;;4958548;28;19926;-80
2023/11/09 03:03:14;;;;;;;;;;;;;;;;;;4955775;28;19934;-77
2023/11/09 03:05:43;;;;;;;;;;;;;;;;;;4961625;28;19933;-83
2023/11/09 03:08:10;;;;;;;;;;;;;;;;;;4967098;28;19961;-81
2023/11/09 03:10:39;;;;;;;;;;;;;;;;;;4946689;28;20303;-79
2023/11/09 03:13:06;;;;;;;;;;;;;;;;;;4961883;28;19927;-79
2023/11/09 03:15:33;;;;;;;;;;;;;;;;;;4965209;28;20387;-80
2023/11/09 03:18:00;;;;;;;;;;;;;;;;;;4959355;28;19957;-78
2023/11/09 03:20:28;;;;;;;;;;;;;;;;;;4953976;28;20336;-78
2023/11/09 03:22:54;;;;;;;;;;;;;;;;;;4953099;28;19927;-78
2023/11/09 03:25:24;;;;;;;;;;;;;;;;;;4955772;28;19981;-79
2023/11/09 03:27:52;;;;;;;;;;;;;;;;;;4951347;28;19938;-79
2023/11/09 03:30:19;;;;;;;;;;;;;;;;;;4949962;28;20376;-79
2023/11/09 03:32:46;;;;;;;;;;;;;;;;;;4960710;28;20343;-79
2023/11/09 03:35:13;;;;;;;;;;;;;;;;;;4958412;28;20375;-80
2023/11/09 03:37:44;;;;;;;;;;;;;;;;;;4951651;29;19970;-79
2023/11/09 03:40:13;;;;;;;;;;;;;;;;;;4953080;28;19937;-80
2023/11/09 03:42:43;;;;;;;;;;;;;;;;;;4954175;28;19930;-81
2023/11/09 03:45:09;;;;;;;;;;;;;;;;;;4941388;29;19999;-81
2023/11/09 03:47:36;;;;;;;;;;;;;;;;;;4959700;28;19957;-81
2023/11/09 03:50:04;;;;;;;;;;;;;;;;;;4965164;28;19926;-79
2023/11/09 03:52:35;;;;;;;;;;;;;;;;;;4971886;28;20008;-79
2023/11/09 03:55:01;;;;;;;;;;;;;;;;;;4966380;28;20279;-81
2023/11/09 03:57:35;;;;;;;;;;;;;;;;;;4958900;28;19977;-80
2023/11/09 04:00:03;;;;;;;;;;;;;;;;;;4958657;28;19986;-81
2023/11/09 04:02:37;;;;;;;;;;;;;;;;;;4959629;28;19927;-80
2023/11/09 04:05:05;;;;;;;;;;;;;;;;;;4968461;28;19926;-80
2023/11/09 04:07:31;;;;;;;;;;;;;;;;;;4966743;28;20370;-81
2023/11/09 04:09:58;;;;;;;;;;;;;;;;;;4961750;28;19962;-80
2023/11/09 04:12:25;;;;;;;;;;;;;;;;;;4961320;28;19934;-81
2023/11/09 04:14:52;;;;;;;;;;;;;;;;;;4953937;28;19934;-82
2023/11/09 04:17:18;;;;;;;;;;;;;;;;;;4960474;28;19926;-81
2023/11/09 04:19:48;;;;;;;;;;;;;;;;;;4963297;28;19926;-80
2023/11/09 04:22:14;;;;;;;;;;;;;;;;;;4952519;28;19950;-77
2023/11/09 04:24:42;;;;;;;;;;;;;;;;;;4959320;28;19926;-78
2023/11/09 04:27:12;;;;;;;;;;;;;;;;;;4962358;28;19977;-77
2023/11/09 04:29:38;;;;;;;;;;;;;;;;;;4949829;28;19933;-79
2023/11/09 04:32:08;;;;;;;;;;;;;;;;;;4949148;28;19927;-81
2023/11/09 04:34:36;;;;;;;;;;;;;;;;;;4942932;28;19936;-81
2023/11/09 04:37:03;;;;;;;;;;;;;;;;;;4953040;28;19958;-79
2023/11/09 04:39:31;;;;;;;;;;;;;;;;;;4961469;28;19933;-79
2023/11/09 04:41:58;;;;;;;;;;;;;;;;;;4958111;28;19926;-80
2023/11/09 04:44:29;;;;;;;;;;;;;;;;;;4961030;28;19952;-79
2023/11/09 04:46:57;;;;;;;;;;;;;;;;;;4959001;28;19925;-78
2023/11/09 04:49:28;;;;;;;;;;;;;;;;;;4960166;28;19926;-77
2023/11/09 04:52:02;;;;;;;;;;;;;;;;;;4953524;28;20017;-78
2023/11/09 04:54:34;;;;;;;;;;;;;;;;;;4970548;28;20454;-79
2023/11/09 04:58:44;;;;;;;;;;;;;;;;;;4962004;28;19969;-80
2023/11/09 05:07:54;;;;;;;;;;;;;;;;;;4948292;28;20272;-81
2023/11/09 05:10:21;;;;;;;;;;;;;;;;;;4955015;28;19927;-81
2023/11/09 05:12:50;;;;;;;;;;;;;;;;;;4943491;29;19961;-82
2023/11/09 05:15:19;;;;;;;;;;;;;;;;;;4956665;28;19927;-82
2023/11/09 05:17:47;;;;;;;;;;;;;;;;;;4959753;28;20300;-82
2023/11/09 05:20:18;;;;;;;;;;;;;;;;;;4957479;28;20458;-81
2023/11/09 05:22:45;;;;;;;;;;;;;;;;;;4951924;28;20272;-82
2023/11/09 05:25:15;;;;;;;;;;;;;;;;;;4955495;28;20401;-81
2023/11/09 05:27:42;;;;;;;;;;;;;;;;;;4965599;28;19926;-82
2023/11/09 05:30:08;;;;;;;;;;;;;;;;;;4958297;28;19984;-82
2023/11/09 05:32:35;;;;;;;;;;;;;;;;;;4961323;28;20029;-81
2023/11/09 05:35:10;;;;;;;;;;;;;;;;;;4959012;28;20342;-82
2023/11/09 05:37:37;;;;;;;;;;;;;;;;;;4949759;28;19930;-82
2023/11/09 05:40:07;;;;;;;;;;;;;;;;;;4960645;28;19926;-82
2023/11/09 05:42:35;;;;;;;;;;;;;;;;;;4952103;28;20339;-84
2023/11/09 05:45:04;;;;;;;;;;;;;;;;;;4941368;28;20403;-80
2023/11/09 05:47:35;;;;;;;;;;;;;;;;;;4945420;28;19927;-81
2023/11/09 05:50:10;;;;;;;;;;;;;;;;;;4944366;28;19930;-82
2023/11/09 05:52:41;;;;;;;;;;;;;;;;;;4963235;28;20374;-81
2023/11/09 05:55:10;;;;;;;;;;;;;;;;;;4953823;28;19973;-81
2023/11/09 05:57:37;;;;;;;;;;;;;;;;;;4957169;28;19931;-82
2023/11/09 06:00:06;;;;;;;;;;;;;;;;;;4942110;29;19931;-79
2023/11/09 06:02:33;;;;;;;;;;;;;;;;;;4956859;28;19933;-81
2023/11/09 06:05:05;;;;;;;;;;;;;;;;;;4945337;28;19973;-82
2023/11/09 06:07:35;;;;;;;;;;;;;;;;;;4952039;28;19926;-82
2023/11/09 06:10:05;;;;;;;;;;;;;;;;;;4945996;28;19934;-82
2023/11/09 06:12:33;;;;;;;;;;;;;;;;;;4962904;28;19988;-83
2023/11/09 06:15:04;;;;;;;;;;;;;;;;;;4962494;28;19954;-81
2023/11/09 06:17:31;;;;;;;;;;;;;;;;;;4958902;28;19938;-82
2023/11/09 06:19:59;;;;;;;;;;;;;;;;;;4964987;28;19926;-81
2023/11/09 06:22:27;;;;;;;;;;;;;;;;;;4955923;28;19973;-83
2023/11/09 06:24:53;;;;;;;;;;;;;;;;;;4960206;28;19934;-82
2023/11/09 06:27:22;;;;;;;;;;;;;;;;;;4959345;28;19933;-81
2023/11/09 06:29:52;;;;;;;;;;;;;;;;;;4967219;28;20013;-81
2023/11/09 06:32:20;;;;;;;;;;;;;;;;;;4959737;28;19934;-82
2023/11/09 06:34:46;;;;;;;;;;;;;;;;;;4958526;28;19931;-82
2023/11/09 06:37:15;;;;;;;;;;;;;;;;;;4960148;28;19933;-80
2023/11/09 06:39:46;;;;;;;;;;;;;;;;;;4957274;28;19938;-83
2023/11/09 06:42:15;;;;;;;;;;;;;;;;;;4959145;28;19937;-82
2023/11/09 06:44:46;;;;;;;;;;;;;;;;;;4966559;28;20018;-84
2023/11/09 06:47:13;;;;;;;;;;;;;;;;;;4967502;28;19938;-84
2023/11/09 06:49:41;;;;;;;;;;;;;;;;;;4969826;28;19989;-82
2023/11/09 06:52:09;;;;;;;;;;;;;;;;;;4955922;28;19926;-83
2023/11/09 06:54:41;;;;;;;;;;;;;;;;;;4963960;28;19932;-82
2023/11/09 06:57:11;;;;;;;;;;;;;;;;;;4943903;28;19927;-81
2023/11/09 06:59:38;;;;;;;;;;;;;;;;;;4964120;28;19962;-83
2023/11/09 07:02:06;;;;;;;;;;;;;;;;;;4939711;28;20429;-83
2023/11/09 07:04:33;;;;;;;;;;;;;;;;;;4964619;28;20036;-81
2023/11/09 07:07:04;;;;;;;;;;;;;;;;;;4961649;28;19930;-82
2023/11/09 07:09:30;;;;;;;;;;;;;;;;;;4962865;28;20386;-83
2023/11/09 07:12:01;;;;;;;;;;;;;;;;;;4952857;28;19931;-81
2023/11/09 07:14:29;;;;;;;;;;;;;;;;;;4959638;28;19926;-82
2023/11/09 07:16:55;;;;;;;;;;;;;;;;;;4964829;28;19926;-82
2023/11/09 07:19:50;;;;;;;;;;;;;;;;;;4963229;28;20294;-80
2023/11/09 07:22:20;;;;;;;;;;;;;;;;;;4961697;28;19992;-81
2023/11/09 07:24:52;;;;;;;;;;;;;;;;;;4958005;28;19927;-82
2023/11/09 07:27:28;;;;;;;;;;;;;;;;;;4953119;28;19926;-82
2023/11/09 07:29:56;;;;;;;;;;;;;;;;;;4957382;28;19930;-82
2023/11/09 07:32:28;;;;;;;;;;;;;;;;;;4953842;28;19926;-82
2023/11/09 07:34:55;;;;;;;;;;;;;;;;;;4960541;28;19926;-82
2023/11/09 07:37:24;;;;;;;;;;;;;;;;;;4948813;28;19939;-80
2023/11/09 07:39:53;;;;;;;;;;;;;;;;;;4965750;28;20226;-81
2023/11/09 07:42:19;;;;;;;;;;;;;;;;;;4960516;28;20387;-81
2023/11/09 07:44:48;;;;;;;;;;;;;;;;;;4953654;28;19930;-80
2023/11/09 07:47:15;;;;;;;;;;;;;;;;;;4952369;28;19942;-83
2023/11/09 07:49:41;;;;;;;;;;;;;;;;;;4960141;28;20035;-81
2023/11/09 07:52:12;;;;;;;;;;;;;;;;;;4959583;28;20044;-82
2023/11/09 07:54:38;;;;;;;;;;;;;;;;;;4957950;28;19926;-82
2023/11/09 07:57:06;;;;;;;;;;;;;;;;;;4938166;28;19926;-81
2023/11/09 07:59:33;;;;;;;;;;;;;;;;;;4959353;28;19937;-82
2023/11/09 08:02:01;;;;;;;;;;;;;;;;;;4958343;28;20366;-80
2023/11/09 08:04:28;;;;;;;;;;;;;;;;;;4960017;28;19926;-82
2023/11/09 08:06:55;;;;;;;;;;;;;;;;;;4950929;28;20272;-82
2023/11/09 08:09:25;;;;;;;;;;;;;;;;;;4945495;28;20418;-81
2023/11/09 08:11:52;;;;;;;;;;;;;;;;;;4956241;28;19930;-78
2023/11/09 08:14:23;;;;;;;;;;;;;;;;;;4954912;28;19965;-79
2023/11/09 08:16:52;;;;;;;;;;;;;;;;;;4946748;28;19926;-81
2023/11/09 08:19:23;;;;;;;;;;;;;;;;;;4961167;28;19926;-80
2023/11/09 08:21:51;;;;;;;;;;;;;;;;;;4957329;28;19948;-81
2023/11/09 08:24:19;;;;;;;;;;;;;;;;;;4955089;28;20306;-81
2023/11/09 08:26:47;;;;;;;;;;;;;;;;;;4957199;28;19934;-79
2023/11/09 08:29:14;;;;;;;;;;;;;;;;;;4965652;28;19936;-79
2023/11/09 08:31:41;;;;;;;;;;;;;;;;;;4958035;28;19926;-81
2023/11/09 08:34:11;;;;;;;;;;;;;;;;;;4959137;28;19930;-82
2023/11/09 08:36:38;;;;;;;;;;;;;;;;;;4962633;28;19980;-81
2023/11/09 08:39:09;;;;;;;;;;;;;;;;;;4957741;28;20307;-82
2023/11/09 08:41:37;;;;;;;;;;;;;;;;;;4959640;28;19927;-81
2023/11/09 08:44:07;;;;;;;;;;;;;;;;;;4957677;28;19948;-82
2023/11/09 08:46:35;;;;;;;;;;;;;;;;;;4963312;28;19934;-82
2023/11/09 08:49:03;;;;;;;;;;;;;;;;;;4958148;28;19930;-82
2023/11/09 08:51:29;;;;;;;;;;;;;;;;;;4954480;28;19965;-82
2023/11/09 08:53:56;;;;;;;;;;;;;;;;;;4958281;28;20052;-80
2023/11/09 08:56:24;;;;;;;;;;;;;;;;;;4951375;28;19938;-82
2023/11/09 08:58:51;;;;;;;;;;;;;;;;;;4960439;28;19934;-83
2023/11/09 09:01:19;;;;;;;;;;;;;;;;;;4955776;28;19940;-82
2023/11/09 09:03:49;;;;;;;;;;;;;;;;;;4956449;28;20037;-82
2023/11/09 09:06:17;;;;;;;;;;;;;;;;;;4963628;28;20374;-82
2023/11/09 09:08:45;;;;;;;;;;;;;;;;;;4960301;28;19953;-82
2023/11/09 09:11:14;;;;;;;;;;;;;;;;;;4959625;28;20011;-83
2023/11/09 09:13:42;;;;;;;;;;;;;;;;;;4960205;28;19930;-82
2023/11/09 09:16:12;;;;;;;;;;;;;;;;;;4954273;28;20362;-81
2023/11/09 09:18:40;;;;;;;;;;;;;;;;;;4958199;28;19931;-82
2023/11/09 09:21:08;;;;;;;;;;;;;;;;;;4954721;28;19933;-81
2023/11/09 09:23:37;;;;;;;;;;;;;;;;;;4953954;28;19969;-81
2023/11/09 09:26:04;;;;;;;;;;;;;;;;;;4955117;28;19937;-82
2023/11/09 09:28:47;;;;;;;;;;;;;;;;;;4949666;28;20384;-81
2023/11/09 09:31:15;;;;;;;;;;;;;;;;;;4956880;28;20017;-81
2023/11/09 09:33:41;;;;;;;;;;;;;;;;;;4957873;28;19926;-81
2023/11/09 09:36:09;;;;;;;;;;;;;;;;;;4960764;28;19930;-81
2023/11/09 09:38:47;;;;;;;;;;;;;;;;;;4952183;28;19927;-82
2023/11/09 09:41:15;;;;;;;;;;;;;;;;;;4961596;28;20363;-80
2023/11/09 09:43:42;;;;;;;;;;;;;;;;;;4958624;28;19934;-81
2023/11/09 09:46:08;;;;;;;;;;;;;;;;;;4962397;28;19986;-82
2023/11/09 09:48:39;;;;;;;;;;;;;;;;;;4947565;28;19931;-81
2023/11/09 09:51:11;;;;;;;;;;;;;;;;;;4966838;28;20343;-81
2023/11/09 09:53:40;;;;;;;;;;;;;;;;;;4954676;28;19944;-80
2023/11/09 09:56:07;;;;;;;;;;;;;;;;;;4965008;28;20038;-80
2023/11/09 09:58:34;;;;;;;;;;;;;;;;;;4959566;28;19938;-80
2023/11/09 10:01:02;;;;;;;;;;;;;;;;;;4963526;28;19930;-81
2023/11/09 10:03:29;;;;;;;;;;;;;;;;;;4966036;28;20253;-81
2023/11/09 10:05:56;;;;;;;;;;;;;;;;;;4961402;28;20469;-80
2023/11/09 10:08:29;;;;;;;;;;;;;;;;;;4962975;28;19933;-82
2023/11/09 10:10:55;;;;;;;;;;;;;;;;;;4958876;28;19931;-80
2023/11/09 10:13:25;;;;;;;;;;;;;;;;;;4963762;28;19938;-80
2023/11/09 10:15:51;;;;;;;;;;;;;;;;;;4967482;28;19937;-81
2023/11/09 10:18:24;;;;;;;;;;;;;;;;;;4959877;28;19927;-81
2023/11/09 10:20:51;;;;;;;;;;;;;;;;;;4951635;28;20375;-81
2023/11/09 10:23:17;;;;;;;;;;;;;;;;;;4976472;28;19926;-79
2023/11/09 10:25:45;;;;;;;;;;;;;;;;;;4968894;28;20372;-81
2023/11/09 10:28:11;;;;;;;;;;;;;;;;;;4960530;28;20395;-79
2023/11/09 10:30:38;;;;;;;;;;;;;;;;;;4966623;28;19949;-80
2023/11/09 10:33:07;;;;;;;;;;;;;;;;;;4959479;28;19926;-81
2023/11/09 10:35:34;;;;;;;;;;;;;;;;;;4962003;28;19985;-81
2023/11/09 10:38:02;;;;;;;;;;;;;;;;;;4961411;28;20383;-81
2023/11/09 10:40:30;;;;;;;;;;;;;;;;;;4959691;28;19927;-82
2023/11/09 10:43:00;;;;;;;;;;;;;;;;;;4968254;28;20551;-81
2023/11/09 10:45:26;;;;;;;;;;;;;;;;;;4964844;28;19934;-79
2023/11/09 10:47:55;;;;;;;;;;;;;;;;;;4949317;28;19930;-81
2023/11/09 10:50:24;;;;;;;;;;;;;;;;;;4966613;28;19938;-79
2023/11/09 10:52:51;;;;;;;;;;;;;;;;;;4937560;29;20041;-81
2023/11/09 10:55:20;;;;;;;;;;;;;;;;;;4965912;28;20378;-80
2023/11/09 10:57:48;;;;;;;;;;;;;;;;;;4958733;28;19934;-79
2023/11/09 11:00:31;;;;;;;;;;;;;;;;;;4960677;28;19937;-80
2023/11/09 11:03:00;;;;;;;;;;;;;;;;;;4951254;28;19933;-80
2023/11/09 11:05:27;;;;;;;;;;;;;;;;;;4955198;28;20026;-78
2023/11/09 11:07:53;;;;;;;;;;;;;;;;;;4961846;28;20414;-80
2023/11/09 11:10:21;;;;;;;;;;;;;;;;;;4957798;28;20013;-82
2023/11/09 11:12:48;;;;;;;;;;;;;;;;;;4954060;28;19974;-80
2023/11/09 11:15:16;;;;;;;;;;;;;;;;;;4968930;28;19926;-82
2023/11/09 11:17:46;;;;;;;;;;;;;;;;;;4965054;28;19927;-78
2023/11/09 11:20:19;;;;;;;;;;;;;;;;;;4963581;28;20002;-81
2023/11/09 11:22:48;;;;;;;;;;;;;;;;;;4959061;28;20387;-81
2023/11/09 11:25:17;;;;;;;;;;;;;;;;;;4966435;28;20294;-80
2023/11/09 11:27:44;;;;;;;;;;;;;;;;;;4953209;28;19933;-80
2023/11/09 11:30:13;;;;;;;;;;;;;;;;;;4949771;28;19927;-79
2023/11/09 11:32:40;;;;;;;;;;;;;;;;;;4959818;28;20386;-80
2023/11/09 11:35:06;;;;;;;;;;;;;;;;;;4968363;28;20033;-78
2023/11/09 11:37:33;;;;;;;;;;;;;;;;;;4964032;28;19930;-79
2023/11/09 11:40:00;;;;;;;;;;;;;;;;;;4956789;28;19981;-81
2023/11/09 11:42:27;;;;;;;;;;;;;;;;;;4962420;28;20839;-81
2023/11/09 11:44:55;;;;;;;;;;;;;;;;;;4965526;28;19927;-80
2023/11/09 11:47:24;;;;;;;;;;;;;;;;;;4955171;28;20347;-80
2023/11/09 11:49:51;;;;;;;;;;;;;;;;;;4961069;28;19930;-80
2023/11/09 11:52:23;;;;;;;;;;;;;;;;;;4961933;28;20217;-80
2023/11/09 11:54:49;;;;;;;;;;;;;;;;;;4959195;28;19926;-81
2023/11/09 11:57:18;;;;;;;;;;;;;;;;;;4962404;28;19933;-81
2023/11/09 11:59:45;;;;;;;;;;;;;;;;;;4954388;28;19926;-80
2023/11/09 12:02:12;;;;;;;;;;;;;;;;;;4963518;28;19933;-79
2023/11/09 12:04:46;;;;;;;;;;;;;;;;;;4966049;28;19977;-80
2023/11/09 12:07:15;;;;;;;;;;;;;;;;;;4962432;28;19933;-80
2023/11/09 12:09:46;;;;;;;;;;;;;;;;;;4959687;28;19931;-79
2023/11/09 12:12:14;;;;;;;;;;;;;;;;;;4956300;28;19988;-81
2023/11/09 12:14:51;;;;;;;;;;;;;;;;;;4950373;28;19927;-80
2023/11/09 12:17:23;;;;;;;;;;;;;;;;;;4961328;28;19973;-78
2023/11/09 12:19:51;;;;;;;;;;;;;;;;;;4966723;28;19934;-81
2023/11/09 12:22:18;;;;;;;;;;;;;;;;;;4955672;28;19927;-82
2023/11/09 12:24:45;;;;;;;;;;;;;;;;;;4959065;28;20005;-80
2023/11/09 12:27:13;;;;;;;;;;;;;;;;;;4964506;28;19926;-80
2023/11/09 12:29:41;;;;;;;;;;;;;;;;;;4964755;28;20401;-80
2023/11/09 12:32:09;;;;;;;;;;;;;;;;;;4955281;28;19927;-79
2023/11/09 12:34:37;;;;;;;;;;;;;;;;;;4966540;28;20101;-80
2023/11/09 12:37:10;;;;;;;;;;;;;;;;;;4962201;28;19926;-80
2023/11/09 12:39:37;;;;;;;;;;;;;;;;;;4941638;29;19930;-79
2023/11/09 12:42:05;;;;;;;;;;;;;;;;;;4969194;28;20330;-79
2023/11/09 12:44:32;;;;;;;;;;;;;;;;;;4968519;28;20334;-80
2023/11/09 12:46:59;;;;;;;;;;;;;;;;;;4954781;28;19933;-79
2023/11/09 12:49:34;;;;;;;;;;;;;;;;;;4964204;28;19926;-80
2023/11/09 12:52:06;;;;;;;;;;;;;;;;;;4949134;28;19926;-78
2023/11/09 12:54:32;;;;;;;;;;;;;;;;;;4957228;28;20307;-80
2023/11/09 12:57:00;;;;;;;;;;;;;;;;;;4967540;28;19969;-80
2023/11/09 12:59:28;;;;;;;;;;;;;;;;;;4965822;28;19930;-81
2023/11/09 13:02:03;;;;;;;;;;;;;;;;;;4950487;28;19931;-78
2023/11/09 13:04:41;;;;;;;;;;;;;;;;;;4940102;28;20624;-79
2023/11/09 13:07:23;;;;;;;;;;;;;;;;;;4948426;28;19926;-79
2023/11/09 13:12:45;;;;;;;;;;;;;;;;;;4952275;28;19933;-79
2023/11/09 13:15:13;;;;;;;;;;;;;;;;;;4955316;28;20300;-77
2023/11/09 13:18:16;;;;;;;;;;;;;;;;;;4953928;28;19982;-79
2023/11/09 13:20:36;;;;;;;;;;;;;;;;;;4965718;28;19937;-78
2023/11/09 13:23:06;;;;;;;;;;;;;;;;;;4961633;28;19930;-78
2023/11/09 13:25:34;;;;;;;;;;;;;;;;;;4955831;28;19979;-78
2023/11/09 13:28:03;;;;;;;;;;;;;;;;;;4947529;28;19931;-78
2023/11/09 13:30:30;;;;;;;;;;;;;;;;;;4963563;28;20307;-81
2023/11/09 13:33:02;;;;;;;;;;;;;;;;;;4962307;28;20264;-78
2023/11/09 13:35:37;;;;;;;;;;;;;;;;;;4954078;28;19936;-78
2023/11/09 13:38:08;;;;;;;;;;;;;;;;;;4956152;28;19927;-82
2023/11/09 13:40:35;;;;;;;;;;;;;;;;;;4952577;28;19934;-79
2023/11/09 13:43:12;;;;;;;;;;;;;;;;;;4962448;28;19927;-79
2023/11/09 13:45:48;;;;;;;;;;;;;;;;;;4964348;28;20032;-79
2023/11/09 13:48:27;;;;;;;;;;;;;;;;;;4947170;28;20711;-79
2023/11/09 13:50:58;;;;;;;;;;;;;;;;;;4954124;28;20303;-79
2023/11/09 13:58:36;;;;;;;;;;;;;;;;;;4954906;28;19996;-80
2023/11/09 14:01:03;;;;;;;;;;;;;;;;;;4973099;28;20014;-81
2023/11/09 14:03:40;;;;;;;;;;;;;;;;;;4963769;28;20251;-80
2023/11/09 14:06:14;;;;;;;;;;;;;;;;;;4957962;28;19933;-78
2023/11/09 14:08:43;;;;;;;;;;;;;;;;;;4949432;28;20288;-77
2023/11/09 14:11:11;;;;;;;;;;;;;;;;;;4964952;28;19926;-80
2023/11/09 14:13:46;;;;;;;;;;;;;;;;;;4964730;28;19926;-79
2023/11/09 14:16:19;;;;;;;;;;;;;;;;;;4959534;28;19930;-80
2023/11/09 14:19:19;;;;;;;;;;;;;;;;;;4940402;28;20055;-80
2023/11/09 14:21:46;;;;;;;;;;;;;;;;;;4958019;28;19934;-79
2023/11/09 14:24:14;;;;;;;;;;;;;;;;;;4950655;28;20307;-79
2023/11/09 14:26:46;;;;;;;;;;;;;;;;;;4959704;28;20308;-78
2023/11/09 14:29:13;;;;;;;;;;;;;;;;;;4940726;29;19934;-80
2023/11/09 14:31:39;;;;;;;;;;;;;;;;;;4980673;28;19931;-77
2023/11/09 14:34:09;;;;;;;;;;;;;;;;;;4962215;28;19938;-80
2023/11/09 14:36:41;;;;;;;;;;;;;;;;;;4956248;28;20030;-78
2023/11/09 14:39:32;;;;;;;;;;;;;;;;;;4963816;28;19936;-78
2023/11/09 14:42:00;;;;;;;;;;;;;;;;;;4955682;28;20029;-79
2023/11/09 14:44:29;;;;;;;;;;;;;;;;;;4966235;28;19977;-79
2023/11/09 14:46:59;;;;;;;;;;;;;;;;;;4966555;28;19942;-79
2023/11/09 14:49:27;;;;;;;;;;;;;;;;;;4963315;28;20033;-78
2023/11/09 14:52:05;;;;;;;;;;;;;;;;;;4957749;28;19938;-76
2023/11/09 14:54:34;;;;;;;;;;;;;;;;;;4963320;28;19927;-76
2023/11/09 14:57:02;;;;;;;;;;;;;;;;;;4962673;28;19954;-79
2023/11/09 14:59:29;;;;;;;;;;;;;;;;;;4968342;28;20397;-77
2023/11/09 15:01:57;;;;;;;;;;;;;;;;;;4958550;28;19927;-77
2023/11/09 15:04:32;;;;;;;;;;;;;;;;;;4969434;28;19930;-78
2023/11/09 15:07:01;;;;;;;;;;;;;;;;;;4959569;28;19965;-79
2023/11/09 15:09:32;;;;;;;;;;;;;;;;;;4960758;28;20298;-79
2023/11/09 15:12:04;;;;;;;;;;;;;;;;;;4961619;28;19987;-77
2023/11/09 15:14:34;;;;;;;;;;;;;;;;;;4958440;28;19935;-81
2023/11/09 15:17:01;;;;;;;;;;;;;;;;;;4959316;28;19926;-79
2023/11/09 15:19:28;;;;;;;;;;;;;;;;;;4955781;28;19930;-79
2023/11/09 15:22:16;;;;;;;;;;;;;;;;;;4960201;28;20382;-79
2023/11/09 15:24:43;;;;;;;;;;;;;;;;;;4960044;28;20384;-79
2023/11/09 15:27:14;;;;;;;;;;;;;;;;;;4958963;28;19937;-78
2023/11/09 15:29:44;;;;;;;;;;;;;;;;;;4961896;28;20363;-76
2023/11/09 15:32:14;;;;;;;;;;;;;;;;;;4966163;28;19927;-77
2023/11/09 15:34:44;;;;;;;;;;;;;;;;;;4955622;28;19961;-78
2023/11/09 15:37:10;;;;;;;;;;;;;;;;;;4955894;28;19951;-78
2023/11/09 15:39:37;;;;;;;;;;;;;;;;;;4967497;28;19941;-80
2023/11/09 15:42:24;;;;;;;;;;;;;;;;;;4960486;28;19926;-78
2023/11/09 15:44:51;;;;;;;;;;;;;;;;;;4964341;28;19934;-77
2023/11/09 15:47:19;;;;;;;;;;;;;;;;;;4959295;28;19941;-76
2023/11/09 15:49:46;;;;;;;;;;;;;;;;;;4963657;28;19926;-76
2023/11/09 15:52:14;;;;;;;;;;;;;;;;;;4961984;28;20015;-79
2023/11/09 15:54:42;;;;;;;;;;;;;;;;;;4963965;28;19930;-77
2023/11/09 15:57:11;;;;;;;;;;;;;;;;;;4954724;28;19927;-78
2023/11/09 15:59:40;;;;;;;;;;;;;;;;;;4957214;28;19926;-78
2023/11/09 16:02:10;;;;;;;;;;;;;;;;;;4958202;28;19930;-76
2023/11/09 16:04:37;;;;;;;;;;;;;;;;;;4955076;28;20303;-75
2023/11/09 16:07:05;;;;;;;;;;;;;;;;;;4960371;28;20033;-75
2023/11/09 16:09:35;;;;;;;;;;;;;;;;;;4944399;28;19937;-75
2023/11/09 16:12:03;;;;;;;;;;;;;;;;;;4964237;28;19960;-76
2023/11/09 16:14:31;;;;;;;;;;;;;;;;;;4961380;28;19934;-75
2023/11/09 16:16:57;;;;;;;;;;;;;;;;;;4960414;28;19933;-75
2023/11/09 16:19:24;;;;;;;;;;;;;;;;;;4951713;28;20410;-76
2023/11/09 16:21:51;;;;;;;;;;;;;;;;;;4956410;28;19930;-74
2023/11/09 16:24:20;;;;;;;;;;;;;;;;;;4954570;28;20421;-74
2023/11/09 16:26:55;;;;;;;;;;;;;;;;;;4962653;28;20441;-75
2023/11/09 16:29:23;;;;;;;;;;;;;;;;;;4956731;28;19937;-75
2023/11/09 16:31:49;;;;;;;;;;;;;;;;;;4955742;28;19926;-76
2023/11/09 16:34:18;;;;;;;;;;;;;;;;;;4959674;28;19927;-75
2023/11/09 16:36:45;;;;;;;;;;;;;;;;;;4960952;28;20602;-75
2023/11/09 16:39:14;;;;;;;;;;;;;;;;;;4956458;28;19933;-73
2023/11/09 16:41:41;;;;;;;;;;;;;;;;;;4956205;28;19983;-74
2023/11/09 16:44:08;;;;;;;;;;;;;;;;;;4954883;28;20355;-74
2023/11/09 16:46:34;;;;;;;;;;;;;;;;;;4924056;28;19934;-74
2023/11/09 16:49:01;;;;;;;;;;;;;;;;;;4933677;28;19949;-74
2023/11/09 16:51:30;;;;;;;;;;;;;;;;;;4957974;28;19937;-76
2023/11/09 16:53:57;;;;;;;;;;;;;;;;;;4960924;28;19935;-76
2023/11/09 16:56:23;;;;;;;;;;;;;;;;;;4946937;28;20013;-74
2023/11/09 16:58:50;;;;;;;;;;;;;;;;;;4960284;28;19937;-75
2023/11/09 17:01:18;;;;;;;;;;;;;;;;;;4959654;28;20340;-75
2023/11/09 17:03:45;;;;;;;;;;;;;;;;;;4960587;28;19933;-74
2023/11/09 17:06:11;;;;;;;;;;;;;;;;;;4957859;28;20388;-76
2023/11/09 17:08:38;;;;;;;;;;;;;;;;;;4960570;28;19941;-75
2023/11/09 17:11:07;;;;;;;;;;;;;;;;;;4952354;28;19927;-77
2023/11/09 17:13:34;;;;;;;;;;;;;;;;;;4955024;28;19926;-74
2023/11/09 17:16:00;;;;;;;;;;;;;;;;;;4957030;28;19926;-74